Time;durP1;ratioP1;P1;durP2;ratioP2;P2;SDS_P1;SDS_P2;PMS_P1;PMS_P2;Temp;Humidity;BMP_temperature;BMP_pressure;BME280_temperature;BME280_humidity;BME280_pressure;Samples;Min_cycle;Max_cycle;Signal;HPM_P1;HPM_P2
2022/03/30 05:02:11;;;;;;;24.20;9.93;;;10.20;97.30;;;;;;5106794;23;20704;-76
2022/03/30 05:04:38;;;;;;;24.98;9.70;;;10.10;98.00;;;;;;4957608;29;20322;-77
2022/03/30 05:07:05;;;;;;;24.67;9.65;;;10.00;98.70;;;;;;4957328;28;20047;-76
2022/03/30 05:09:33;;;;;;;26.23;9.65;;;10.00;99.20;;;;;;4957274;29;20047;-76
2022/03/30 05:11:59;;;;;;;28.20;9.77;;;10.00;99.90;;;;;;4966894;28;20053;-76
2022/03/30 05:14:26;;;;;;;24.33;8.82;;;9.90;99.90;;;;;;4974516;28;20122;-77
2022/03/30 05:16:53;;;;;;;24.95;8.52;;;10.00;99.90;;;;;;4958821;28;20139;-76
2022/03/30 05:19:22;;;;;;;31.17;9.85;;;9.90;99.90;;;;;;4957233;29;20408;-77
2022/03/30 05:21:49;;;;;;;26.27;10.90;;;10.00;99.90;;;;;;4961912;28;20051;-78
2022/03/30 05:24:16;;;;;;;21.08;8.00;;;10.00;99.90;;;;;;4976328;28;20047;-77
2022/03/30 05:26:43;;;;;;;22.10;8.77;;;10.00;99.90;;;;;;4975710;28;20480;-76
2022/03/30 05:29:10;;;;;;;18.98;8.07;;;10.10;99.90;;;;;;4975842;28;20046;-79
2022/03/30 05:31:37;;;;;;;22.25;8.75;;;10.10;99.90;;;;;;4975919;28;20042;-78
2022/03/30 05:34:04;;;;;;;23.33;8.98;;;10.10;99.90;;;;;;4976287;28;20047;-78
2022/03/30 05:36:33;;;;;;;23.20;8.43;;;10.00;99.90;;;;;;4975775;28;20054;-78
2022/03/30 05:39:00;;;;;;;20.60;8.40;;;10.10;99.90;;;;;;4975691;28;20054;-78
2022/03/30 05:41:27;;;;;;;22.45;8.80;;;10.20;99.90;;;;;;4975715;28;20046;-79
2022/03/30 05:43:54;;;;;;;24.50;8.43;;;10.10;99.90;;;;;;4975787;28;20462;-79
2022/03/30 05:46:21;;;;;;;20.30;8.25;;;10.10;99.90;;;;;;4973374;28;20046;-78
2022/03/30 05:48:49;;;;;;;21.50;8.82;;;10.10;99.90;;;;;;4975906;28;20049;-78
2022/03/30 05:51:16;;;;;;;20.15;8.20;;;10.00;99.90;;;;;;4958990;28;20047;-78
2022/03/30 05:53:44;;;;;;;25.50;8.10;;;10.10;99.90;;;;;;4956317;29;20057;-78
2022/03/30 05:56:11;;;;;;;18.08;8.07;;;10.00;99.90;;;;;;4956070;28;20051;-78
2022/03/30 05:58:38;;;;;;;18.13;7.80;;;9.90;99.90;;;;;;4956173;29;20067;-78
2022/03/30 06:01:06;;;;;;;22.00;8.07;;;9.90;99.90;;;;;;4956062;28;20051;-78
2022/03/30 06:03:37;;;;;;;16.83;8.13;;;10.10;99.90;;;;;;4955758;28;20051;-78
2022/03/30 06:06:05;;;;;;;19.48;8.13;;;10.20;99.90;;;;;;4956028;28;20051;-78
2022/03/30 06:08:32;;;;;;;22.92;8.93;;;10.10;99.90;;;;;;4973523;28;20057;-78
2022/03/30 06:11:00;;;;;;;19.10;9.07;;;10.00;99.90;;;;;;4973471;28;20042;-78
2022/03/30 06:13:27;;;;;;;20.85;8.85;;;9.60;99.90;;;;;;4974993;28;20093;-78
2022/03/30 06:15:55;;;;;;;21.10;9.40;;;9.50;99.90;;;;;;4962318;28;20047;-78
2022/03/30 06:18:22;;;;;;;20.15;8.43;;;9.40;99.90;;;;;;4958111;28;20073;-78
2022/03/30 06:20:49;;;;;;;24.80;9.30;;;9.40;99.90;;;;;;4955730;28;20051;-78
2022/03/30 06:23:16;;;;;;;20.02;7.93;;;9.50;99.90;;;;;;4955483;28;20071;-78
2022/03/30 06:25:44;;;;;;;22.95;9.80;;;9.70;99.90;;;;;;4955611;28;20051;-78
2022/03/30 06:28:12;;;;;;;27.60;9.02;;;9.40;99.90;;;;;;4955618;29;20047;-78
2022/03/30 06:30:39;;;;;;;26.75;9.18;;;9.30;99.90;;;;;;4956653;28;20047;-78
2022/03/30 06:33:07;;;;;;;22.08;9.27;;;9.20;99.90;;;;;;4957842;28;20051;-78
2022/03/30 06:35:34;;;;;;;22.92;9.70;;;9.20;99.90;;;;;;4974363;28;20051;-78
2022/03/30 06:38:02;;;;;;;22.45;8.77;;;9.20;99.90;;;;;;4974357;28;20110;-78
2022/03/30 06:40:29;;;;;;;19.30;8.15;;;9.40;99.90;;;;;;4973034;28;20058;-78
2022/03/30 06:42:58;;;;;;;23.63;9.40;;;9.70;99.90;;;;;;4974606;28;20477;-77
2022/03/30 06:45:26;;;;;;;20.88;9.00;;;9.70;99.90;;;;;;4973315;28;20042;-77
2022/03/30 06:47:53;;;;;;;20.08;8.77;;;9.70;99.90;;;;;;4955398;29;20126;-78
2022/03/30 06:50:21;;;;;;;26.15;10.82;;;9.70;99.90;;;;;;4956335;28;20051;-77
2022/03/30 06:52:48;;;;;;;22.67;8.65;;;9.70;99.90;;;;;;4966737;28;20126;-78
2022/03/30 06:55:16;;;;;;;22.48;8.25;;;9.70;99.90;;;;;;4959130;28;20043;-78
2022/03/30 06:57:43;;;;;;;22.23;8.90;;;9.80;99.90;;;;;;4973708;28;20545;-78
2022/03/30 07:00:12;;;;;;;22.85;8.40;;;9.80;99.90;;;;;;4974075;28;20146;-78
2022/03/30 07:02:41;;;;;;;22.50;8.55;;;9.90;99.90;;;;;;4974100;28;20068;-77
2022/03/30 07:05:09;;;;;;;19.75;9.00;;;9.80;99.90;;;;;;4974068;28;20506;-78
2022/03/30 07:10:23;;;;;;;20.98;8.05;;;9.90;99.90;;;;;;4972685;28;20403;-77
2022/03/30 07:12:52;;;;;;;21.02;8.57;;;9.90;99.90;;;;;;4974264;28;20047;-78
2022/03/30 07:15:21;;;;;;;24.65;9.18;;;10.00;99.90;;;;;;4958144;28;20082;-78
2022/03/30 07:17:51;;;;;;;22.15;9.20;;;9.90;99.90;;;;;;4967096;28;20047;-78
2022/03/30 07:20:21;;;;;;;22.13;9.07;;;9.80;99.90;;;;;;4974173;28;20053;-78
2022/03/30 07:22:50;;;;;;;20.88;8.15;;;9.80;99.90;;;;;;4955504;28;20043;-78
2022/03/30 07:25:19;;;;;;;24.25;9.05;;;9.90;99.90;;;;;;4954848;29;20051;-78
2022/03/30 07:27:50;;;;;;;21.85;8.77;;;9.90;99.90;;;;;;4973537;28;20043;-78
2022/03/30 07:30:19;;;;;;;25.20;9.80;;;10.00;99.90;;;;;;4974313;28;20057;-78
2022/03/30 07:32:50;;;;;;;26.38;8.85;;;9.90;99.90;;;;;;4972493;28;20054;-78
2022/03/30 07:35:20;;;;;;;19.13;8.15;;;10.00;99.90;;;;;;4973984;28;20534;-78
2022/03/30 07:37:47;;;;;;;19.70;8.35;;;10.00;99.90;;;;;;4938748;28;20055;-78
2022/03/30 07:40:17;;;;;;;19.73;8.15;;;10.10;99.90;;;;;;4954754;29;20058;-78
2022/03/30 07:42:46;;;;;;;20.15;8.05;;;10.00;99.90;;;;;;4966261;28;20077;-78
2022/03/30 07:45:13;;;;;;;20.83;8.07;;;10.10;99.90;;;;;;4974112;28;20072;-78
2022/03/30 07:47:41;;;;;;;15.50;7.55;;;10.10;99.90;;;;;;4973693;28;20057;-78
2022/03/30 07:50:11;;;;;;;18.80;7.50;;;10.20;99.90;;;;;;4973876;28;20472;-78
2022/03/30 07:52:39;;;;;;;22.08;8.15;;;10.10;99.90;;;;;;4972410;28;20061;-78
2022/03/30 07:55:08;;;;;;;23.58;8.70;;;9.90;99.90;;;;;;4973350;28;20568;-78
2022/03/30 07:57:37;;;;;;;20.60;9.35;;;9.90;99.90;;;;;;4973419;28;20063;-78
2022/03/30 08:00:09;;;;;;;17.60;8.73;;;9.90;99.90;;;;;;4972240;28;20125;-78
2022/03/30 08:02:36;;;;;;;19.20;8.88;;;9.90;99.90;;;;;;4954375;29;20075;-78
2022/03/30 08:05:04;;;;;;;19.52;8.82;;;9.80;99.90;;;;;;4954407;29;20460;-78
2022/03/30 08:07:34;;;;;;;20.27;8.75;;;9.80;99.90;;;;;;4954176;29;20047;-78
2022/03/30 08:10:01;;;;;;;21.75;9.10;;;9.70;99.90;;;;;;4952923;28;20047;-78
2022/03/30 08:12:28;;;;;;;17.08;8.85;;;9.70;99.90;;;;;;4935360;29;20048;-78
2022/03/30 08:14:55;;;;;;;23.33;9.00;;;9.60;99.90;;;;;;4943130;29;20047;-78
2022/03/30 08:17:24;;;;;;;23.63;9.05;;;9.70;99.90;;;;;;4954091;29;20058;-78
2022/03/30 08:19:51;;;;;;;21.58;8.70;;;9.80;99.90;;;;;;4954222;29;20051;-78
2022/03/30 08:22:26;;;;;;;27.20;9.65;;;9.80;99.90;;;;;;4952567;29;20071;-78
2022/03/30 08:24:56;;;;;;;22.38;8.57;;;9.60;99.90;;;;;;4954243;29;20047;-78
2022/03/30 08:27:25;;;;;;;21.38;8.20;;;9.70;99.90;;;;;;4954727;28;20051;-78
2022/03/30 08:29:53;;;;;;;18.35;7.82;;;9.80;99.90;;;;;;4956285;28;20472;-78
2022/03/30 08:32:22;;;;;;;18.15;8.00;;;9.90;99.90;;;;;;4957417;28;20591;-78
2022/03/30 08:34:51;;;;;;;20.15;7.95;;;10.00;99.90;;;;;;4957677;29;20051;-78
2022/03/30 08:37:18;;;;;;;20.38;8.98;;;10.10;99.90;;;;;;4957556;29;20061;-78
2022/03/30 08:39:46;;;;;;;22.83;8.65;;;10.10;99.90;;;;;;4957634;28;20510;-78
2022/03/30 08:42:17;;;;;;;24.33;9.52;;;10.10;99.90;;;;;;4953207;28;20062;-78
2022/03/30 08:44:47;;;;;;;24.40;9.02;;;10.20;99.90;;;;;;4938513;29;20047;-78
2022/03/30 08:47:14;;;;;;;19.17;9.30;;;10.20;99.90;;;;;;4938163;29;20082;-78
2022/03/30 08:49:45;;;;;;;17.65;7.75;;;10.20;99.90;;;;;;4939233;29;20596;-78
2022/03/30 08:52:13;;;;;;;23.67;9.00;;;10.10;99.90;;;;;;4938543;29;20043;-77
2022/03/30 08:54:43;;;;;;;22.67;9.70;;;10.20;99.90;;;;;;4938225;29;20074;-77
2022/03/30 08:57:12;;;;;;;22.63;10.00;;;10.20;99.90;;;;;;4938026;29;20058;-78
2022/03/30 08:59:40;;;;;;;24.33;10.60;;;10.20;99.90;;;;;;4939036;29;20127;-78
2022/03/30 09:02:10;;;;;;;26.35;10.82;;;10.10;99.90;;;;;;4953154;28;20588;-77
2022/03/30 09:04:38;;;;;;;21.23;9.90;;;10.10;99.90;;;;;;4957179;28;20055;-78
2022/03/30 09:07:05;;;;;;;21.25;9.60;;;10.20;99.90;;;;;;4956952;28;20346;-78
2022/03/30 09:09:35;;;;;;;25.25;9.98;;;10.20;99.90;;;;;;4957067;29;20488;-78
2022/03/30 09:12:10;;;;;;;21.45;10.13;;;10.20;99.90;;;;;;4957847;28;20093;-78
2022/03/30 09:14:40;;;;;;;18.85;9.15;;;10.10;99.90;;;;;;4958857;28;20309;-78
2022/03/30 09:17:09;;;;;;;20.73;10.02;;;10.30;99.90;;;;;;4975537;28;20055;-78
2022/03/30 09:19:39;;;;;;;28.05;11.18;;;10.20;99.90;;;;;;4976107;28;20047;-77
2022/03/30 09:22:08;;;;;;;32.13;12.88;;;10.10;99.90;;;;;;4973451;28;20117;-78
2022/03/30 09:24:39;;;;;;;23.90;10.88;;;10.00;99.90;;;;;;4975985;28;20093;-78
2022/03/30 09:27:08;;;;;;;22.40;10.77;;;10.10;99.90;;;;;;4973973;28;20061;-78
2022/03/30 09:29:38;;;;;;;20.75;10.55;;;10.20;99.90;;;;;;4974206;28;20044;-78
2022/03/30 09:32:09;;;;;;;22.83;10.93;;;10.30;99.90;;;;;;4975667;28;20512;-78
2022/03/30 09:34:46;;;;;;;24.83;10.25;;;10.30;99.90;;;;;;4975643;28;20098;-78
2022/03/30 09:37:14;;;;;;;28.23;11.80;;;10.30;99.90;;;;;;4975501;28;20050;-78
2022/03/30 09:39:42;;;;;;;28.48;11.45;;;10.00;99.90;;;;;;4974926;28;20047;-78
2022/03/30 09:42:11;;;;;;;24.02;10.75;;;10.00;99.90;;;;;;4974294;28;20051;-77
2022/03/30 09:44:47;;;;;;;27.13;10.75;;;10.20;99.90;;;;;;4975426;28;20043;-78
2022/03/30 09:47:17;;;;;;;26.35;10.10;;;10.40;99.90;;;;;;4975450;28;20043;-77
2022/03/30 09:49:47;;;;;;;21.50;10.43;;;10.40;99.90;;;;;;4975480;28;20050;-78
2022/03/30 09:52:18;;;;;;;23.02;10.23;;;10.30;99.90;;;;;;4974133;28;20105;-78
2022/03/30 09:54:49;;;;;;;22.13;10.25;;;10.40;99.90;;;;;;4975554;28;20484;-78
2022/03/30 09:57:21;;;;;;;19.85;9.52;;;10.40;99.90;;;;;;4958668;28;20083;-78
2022/03/30 10:00:00;;;;;;;18.10;9.05;;;10.50;99.90;;;;;;4975627;28;20415;-78
2022/03/30 10:02:32;;;;;;;22.55;9.70;;;10.50;99.90;;;;;;4973441;28;20055;-77
2022/03/30 10:04:59;;;;;;;18.65;9.23;;;10.50;99.90;;;;;;4975187;28;20568;-78
2022/03/30 10:07:28;;;;;;;24.30;10.77;;;10.60;99.90;;;;;;4974997;28;20495;-78
2022/03/30 10:09:56;;;;;;;28.02;11.60;;;10.40;99.90;;;;;;4975274;28;20560;-78
2022/03/30 10:12:24;;;;;;;23.88;10.38;;;10.40;99.90;;;;;;4945040;28;20138;-77
2022/03/30 10:14:51;;;;;;;15.98;8.95;;;10.50;99.90;;;;;;4954422;28;20054;-77
2022/03/30 10:17:19;;;;;;;25.10;9.00;;;10.60;99.90;;;;;;4961946;28;20485;-77
2022/03/30 10:19:49;;;;;;;23.67;10.05;;;10.50;99.90;;;;;;4953722;29;20047;-77
2022/03/30 10:22:44;;;;;;;24.23;10.98;;;10.50;99.90;;;;;;4969108;28;20102;-77
2022/03/30 10:25:27;;;;;;;21.80;10.07;;;10.60;99.90;;;;;;4968856;28;20074;-77
2022/03/30 10:27:57;;;;;;;19.07;9.57;;;10.70;99.90;;;;;;4951823;28;20412;-77
2022/03/30 10:30:29;;;;;;;22.30;9.75;;;10.70;99.90;;;;;;4956512;28;20063;-75
2022/03/30 10:32:59;;;;;;;22.00;10.30;;;10.70;99.90;;;;;;4953147;29;20051;-76
2022/03/30 10:35:41;;;;;;;26.92;11.52;;;10.70;99.90;;;;;;4952433;29;20493;-75
2022/03/30 10:38:10;;;;;;;23.90;11.13;;;10.50;99.90;;;;;;4953018;29;20065;-75
2022/03/30 10:40:39;;;;;;;20.23;10.98;;;10.70;99.90;;;;;;4952756;29;20051;-75
2022/03/30 10:43:09;;;;;;;22.92;10.02;;;11.00;99.90;;;;;;4952604;28;20051;-75
2022/03/30 10:45:48;;;;;;;20.42;10.35;;;11.00;99.90;;;;;;4954660;28;20047;-75
2022/03/30 10:48:22;;;;;;;22.00;10.50;;;11.00;99.90;;;;;;4955550;28;20126;-75
2022/03/30 10:50:57;;;;;;;20.42;10.50;;;11.10;99.90;;;;;;4953014;28;20520;-76
2022/03/30 10:53:43;;;;;;;21.85;10.25;;;11.00;99.90;;;;;;4952803;29;20073;-75
2022/03/30 10:56:32;;;;;;;20.25;9.82;;;11.20;99.90;;;;;;4952507;29;20127;-75
2022/03/30 10:59:14;;;;;;;22.42;9.90;;;11.10;99.90;;;;;;4952124;29;20421;-75
2022/03/30 11:01:41;;;;;;;20.95;9.70;;;11.20;99.90;;;;;;4952451;29;20055;-75
2022/03/30 11:04:22;;;;;;;25.63;10.30;;;11.20;99.90;;;;;;4953524;28;20499;-75
2022/03/30 11:07:40;;;;;;;25.02;10.35;;;11.30;99.90;;;;;;4952588;29;20110;-80
2022/03/30 11:10:31;;;;;;;21.55;10.88;;;11.40;99.90;;;;;;4952589;29;20130;-77
2022/03/30 11:13:12;;;;;;;26.30;11.02;;;11.70;99.90;;;;;;4952256;29;20059;-77
2022/03/30 11:16:11;;;;;;;21.42;11.00;;;11.70;99.90;;;;;;4950475;29;20055;-77
2022/03/30 11:19:02;;;;;;;21.13;9.68;;;11.80;99.90;;;;;;4953931;28;20074;-77
2022/03/30 11:21:31;;;;;;;24.65;9.38;;;12.00;99.90;;;;;;4945249;29;20133;-77
2022/03/30 11:24:13;;;;;;;24.63;9.18;;;12.10;99.90;;;;;;4951923;29;20122;-77
2022/03/30 11:27:23;;;;;;;23.77;9.50;;;12.10;99.90;;;;;;4952143;29;20429;-75
2022/03/30 11:30:15;;;;;;;24.27;10.05;;;12.10;99.90;;;;;;4952165;29;20130;-75
2022/03/30 11:33:06;;;;;;;24.58;9.52;;;11.90;99.90;;;;;;4952287;29;20648;-75
2022/03/30 11:35:42;;;;;;;26.58;9.95;;;11.90;99.90;;;;;;4951902;29;20158;-74
2022/03/30 11:38:23;;;;;;;19.65;8.23;;;12.00;99.90;;;;;;4952030;29;20059;-74
2022/03/30 11:40:58;;;;;;;17.27;8.00;;;12.00;99.90;;;;;;4952157;29;20126;-75
2022/03/30 11:43:25;;;;;;;20.30;8.68;;;12.00;99.90;;;;;;4952183;29;20057;-75
2022/03/30 11:45:52;;;;;;;17.60;8.27;;;12.10;99.90;;;;;;4953635;28;20412;-75
2022/03/30 11:48:20;;;;;;;18.45;8.25;;;12.10;99.90;;;;;;4958473;28;20511;-75
2022/03/30 11:50:50;;;;;;;21.13;8.77;;;12.20;99.90;;;;;;4971495;28;20043;-75
2022/03/30 11:53:22;;;;;;;17.17;8.38;;;12.20;99.90;;;;;;4962697;28;20051;-75
2022/03/30 11:55:54;;;;;;;18.83;8.40;;;12.20;99.90;;;;;;4952129;29;20161;-76
2022/03/30 11:58:28;;;;;;;21.15;8.45;;;12.10;99.90;;;;;;4951626;29;20055;-75
2022/03/30 12:00:57;;;;;;;24.13;9.05;;;12.20;99.90;;;;;;4964383;28;20488;-75
2022/03/30 12:03:25;;;;;;;17.98;7.32;;;12.40;99.90;;;;;;4975112;28;20061;-77
2022/03/30 12:05:57;;;;;;;17.27;7.72;;;12.30;99.90;;;;;;4973364;28;20050;-77
2022/03/30 12:08:25;;;;;;;18.65;7.70;;;12.40;99.90;;;;;;4955119;28;20061;-77
2022/03/30 12:10:59;;;;;;;14.02;6.47;;;12.40;99.90;;;;;;4974685;28;20055;-77
2022/03/30 12:13:28;;;;;;;16.10;7.05;;;12.60;99.90;;;;;;4957844;28;20062;-77
2022/03/30 12:16:07;;;;;;;15.77;7.05;;;12.50;99.90;;;;;;4953735;29;20054;-77
2022/03/30 12:18:43;;;;;;;20.13;7.97;;;12.60;99.90;;;;;;4955424;29;20063;-77
2022/03/30 12:21:10;;;;;;;17.52;8.57;;;12.50;99.90;;;;;;4956287;28;20480;-77
2022/03/30 12:23:38;;;;;;;13.75;6.68;;;12.20;99.90;;;;;;4955134;29;20077;-77
2022/03/30 12:26:15;;;;;;;15.40;7.47;;;12.10;99.90;;;;;;4955358;29;20106;-77
2022/03/30 12:28:42;;;;;;;15.43;6.30;;;12.20;99.90;;;;;;4955360;29;20048;-77
2022/03/30 12:31:10;;;;;;;14.55;6.78;;;12.20;99.90;;;;;;4955431;29;20055;-77
2022/03/30 12:33:44;;;;;;;15.25;6.60;;;12.20;99.90;;;;;;4965643;28;20050;-77
2022/03/30 12:36:17;;;;;;;18.15;7.50;;;12.20;99.90;;;;;;4954945;28;20096;-77
2022/03/30 12:38:44;;;;;;;17.42;7.03;;;12.30;99.90;;;;;;4966828;28;20058;-77
2022/03/30 12:41:12;;;;;;;14.30;6.75;;;12.20;99.90;;;;;;4955291;29;20070;-80
2022/03/30 12:43:42;;;;;;;21.73;7.68;;;12.20;99.90;;;;;;4955239;29;20055;-81
2022/03/30 12:46:17;;;;;;;15.43;6.93;;;12.10;99.90;;;;;;4955224;29;20051;-80
2022/03/30 12:48:46;;;;;;;17.40;6.57;;;12.20;99.90;;;;;;4954705;29;20057;-80
2022/03/30 12:51:19;;;;;;;17.08;7.82;;;12.30;99.90;;;;;;4955031;29;20069;-79
2022/03/30 12:53:49;;;;;;;14.98;7.20;;;12.20;99.90;;;;;;4955210;29;20051;-82
2022/03/30 12:56:22;;;;;;;48.38;25.73;;;12.20;99.90;;;;;;4954905;29;20047;-82
2022/03/30 12:58:53;;;;;;;23.48;12.68;;;12.30;99.90;;;;;;4954610;29;20480;-82
2022/03/30 13:01:33;;;;;;;13.93;7.93;;;12.30;99.90;;;;;;4954453;29;20110;-82
2022/03/30 13:04:00;;;;;;;18.77;8.80;;;12.20;99.90;;;;;;4954940;29;20125;-81
2022/03/30 13:06:27;;;;;;;15.50;7.80;;;12.20;99.90;;;;;;4954772;29;20063;-81
2022/03/30 13:09:12;;;;;;;17.58;8.38;;;12.10;99.90;;;;;;4953561;28;20158;-82
2022/03/30 13:11:45;;;;;;;16.40;8.43;;;12.00;99.90;;;;;;4955242;28;20485;-82
2022/03/30 13:14:18;;;;;;;18.48;9.45;;;12.10;99.90;;;;;;4954367;28;20051;-81
2022/03/30 13:16:55;;;;;;;21.80;9.43;;;12.10;99.90;;;;;;4952391;29;20477;-81
2022/03/30 13:19:24;;;;;;;17.02;9.13;;;12.10;99.90;;;;;;4957158;28;20078;-81
2022/03/30 13:21:53;;;;;;;17.50;10.10;;;12.10;99.90;;;;;;4962074;28;20551;-82
2022/03/30 13:24:23;;;;;;;20.88;9.65;;;12.00;99.90;;;;;;4953666;29;20057;-81
2022/03/30 13:26:55;;;;;;;19.98;10.00;;;12.00;99.90;;;;;;4964357;28;20420;-81
2022/03/30 13:29:24;;;;;;;17.10;9.63;;;11.90;99.90;;;;;;4954014;29;20119;-82
2022/03/30 13:31:51;;;;;;;18.15;9.73;;;11.90;99.90;;;;;;4953825;29;20134;-81
2022/03/30 13:34:21;;;;;;;16.65;9.32;;;11.80;99.90;;;;;;4953603;29;20057;-81
2022/03/30 13:36:48;;;;;;;17.98;10.20;;;11.80;99.90;;;;;;4953609;29;20465;-81
2022/03/30 13:39:17;;;;;;;19.15;10.55;;;11.70;99.90;;;;;;4954211;29;20055;-81
2022/03/30 13:41:44;;;;;;;20.17;10.00;;;11.60;99.90;;;;;;4953935;29;20051;-81
2022/03/30 13:44:12;;;;;;;23.45;13.13;;;11.70;99.90;;;;;;4953871;29;20110;-81
2022/03/30 13:46:41;;;;;;;23.20;12.88;;;11.60;99.90;;;;;;4953763;29;20102;-81
2022/03/30 13:49:08;;;;;;;23.75;13.77;;;11.40;99.90;;;;;;4953402;29;20058;-81
2022/03/30 13:51:35;;;;;;;28.08;12.77;;;11.40;99.90;;;;;;4953504;29;20051;-81
2022/03/30 13:54:04;;;;;;;19.75;11.90;;;11.60;99.90;;;;;;4958379;28;20042;-82
2022/03/30 13:56:31;;;;;;;19.77;12.07;;;11.60;99.90;;;;;;4972979;28;20361;-81
2022/03/30 13:58:59;;;;;;;20.35;11.93;;;11.70;99.90;;;;;;4972451;28;20607;-82
2022/03/30 14:01:29;;;;;;;17.63;10.60;;;11.70;99.90;;;;;;4972773;28;20063;-82
2022/03/30 14:03:57;;;;;;;13.85;9.07;;;11.80;99.90;;;;;;4972734;28;20166;-82
2022/03/30 14:06:24;;;;;;;12.60;8.20;;;11.60;99.90;;;;;;4972691;28;20141;-81
2022/03/30 14:08:52;;;;;;;11.23;7.55;;;11.50;99.90;;;;;;4972798;28;20137;-81
2022/03/30 14:11:20;;;;;;;8.55;6.43;;;11.50;99.90;;;;;;4973221;28;20467;-81
2022/03/30 14:13:48;;;;;;;9.55;6.40;;;11.50;99.90;;;;;;4972665;28;20058;-82
2022/03/30 14:16:16;;;;;;;8.25;5.55;;;11.30;99.90;;;;;;4970549;28;20078;-82
2022/03/30 14:18:43;;;;;;;9.98;6.55;;;11.40;99.90;;;;;;4972064;28;20133;-82
2022/03/30 14:21:11;;;;;;;8.20;5.38;;;11.50;99.90;;;;;;4972452;28;20043;-81
2022/03/30 14:23:40;;;;;;;7.07;5.13;;;11.40;99.90;;;;;;4954342;28;20113;-81
2022/03/30 14:26:07;;;;;;;7.78;5.18;;;11.20;99.90;;;;;;4952636;29;20055;-82
2022/03/30 14:28:34;;;;;;;6.47;4.60;;;11.20;99.90;;;;;;4952729;29;20137;-82
2022/03/30 14:31:03;;;;;;;5.95;4.30;;;11.10;99.90;;;;;;4952541;29;20138;-82
2022/03/30 14:33:31;;;;;;;6.05;4.03;;;11.20;99.90;;;;;;4952977;29;20051;-82
2022/03/30 14:35:59;;;;;;;5.82;4.20;;;11.40;99.90;;;;;;4952652;29;20069;-81
2022/03/30 14:38:29;;;;;;;5.63;3.90;;;11.10;99.90;;;;;;4952997;29;20424;-81
2022/03/30 14:40:56;;;;;;;6.13;3.95;;;11.10;99.90;;;;;;4952750;29;20066;-82
2022/03/30 14:43:24;;;;;;;5.72;4.07;;;11.00;99.90;;;;;;4952627;29;20458;-83
2022/03/30 14:45:52;;;;;;;5.10;3.72;;;11.00;99.90;;;;;;4953062;29;20051;-82
2022/03/30 14:48:19;;;;;;;6.85;4.00;;;11.00;99.90;;;;;;4952524;29;20086;-82
2022/03/30 14:50:48;;;;;;;5.75;4.00;;;10.80;99.90;;;;;;4951835;28;20102;-82
2022/03/30 14:53:15;;;;;;;5.53;3.58;;;10.90;99.90;;;;;;4946464;28;20055;-82
2022/03/30 14:55:44;;;;;;;5.45;3.80;;;11.20;99.90;;;;;;4942526;29;20053;-82
2022/03/30 14:58:11;;;;;;;6.32;4.20;;;11.10;99.90;;;;;;4936229;29;20368;-82
2022/03/30 15:00:38;;;;;;;5.43;3.90;;;11.10;99.90;;;;;;4941005;29;20077;-81
2022/03/30 15:03:06;;;;;;;6.97;4.65;;;11.10;99.90;;;;;;4951548;29;20061;-80
2022/03/30 15:05:33;;;;;;;5.40;3.40;;;11.20;99.90;;;;;;4939244;29;20056;-80
2022/03/30 15:08:00;;;;;;;5.80;3.58;;;11.30;99.90;;;;;;4933542;29;20058;-81
2022/03/30 15:10:28;;;;;;;6.50;3.83;;;11.10;99.90;;;;;;4936032;29;20051;-81
2022/03/30 15:12:57;;;;;;;6.43;4.43;;;11.30;99.90;;;;;;4943137;29;20054;-80
2022/03/30 15:15:24;;;;;;;6.15;4.30;;;11.20;99.90;;;;;;4933039;29;20065;-81
2022/03/30 15:17:51;;;;;;;6.90;4.25;;;11.30;99.90;;;;;;4942205;28;20061;-82
2022/03/30 15:20:18;;;;;;;6.00;4.10;;;11.50;99.90;;;;;;4944170;28;20058;-81
2022/03/30 15:22:45;;;;;;;5.85;4.25;;;11.80;99.90;;;;;;4936337;29;20053;-80
2022/03/30 15:25:14;;;;;;;8.38;4.80;;;12.30;99.90;;;;;;4941037;29;20047;-81
2022/03/30 15:27:42;;;;;;;8.43;4.70;;;12.60;99.90;;;;;;4932977;29;20123;-80
2022/03/30 15:30:10;;;;;;;6.97;4.47;;;12.10;99.90;;;;;;4940636;29;20064;-81
2022/03/30 15:32:39;;;;;;;6.53;4.45;;;11.60;99.90;;;;;;4942178;29;20133;-81
2022/03/30 15:35:09;;;;;;;5.95;4.40;;;11.60;99.90;;;;;;4935425;29;20051;-81
2022/03/30 15:37:36;;;;;;;5.90;3.90;;;11.60;99.90;;;;;;4932101;29;20138;-82
2022/03/30 15:40:03;;;;;;;6.55;4.20;;;11.60;99.90;;;;;;4936390;29;20220;-82
2022/03/30 15:42:32;;;;;;;6.93;4.22;;;11.40;99.90;;;;;;4941714;28;20048;-81
2022/03/30 15:44:59;;;;;;;6.43;4.45;;;11.10;99.90;;;;;;4940973;29;20055;-82
2022/03/30 15:47:28;;;;;;;5.93;4.10;;;11.30;99.90;;;;;;4935362;29;20170;-81
2022/03/30 15:49:56;;;;;;;5.93;4.18;;;11.30;99.90;;;;;;4934192;29;20306;-82
2022/03/30 15:52:23;;;;;;;5.97;4.35;;;11.30;99.90;;;;;;4933587;29;20056;-82
2022/03/30 15:54:50;;;;;;;6.45;4.30;;;11.20;99.90;;;;;;4944650;29;20462;-82
2022/03/30 15:57:18;;;;;;;6.40;4.50;;;11.30;99.90;;;;;;4939104;29;20055;-82
2022/03/30 15:59:47;;;;;;;8.15;4.80;;;11.30;99.90;;;;;;4937917;28;20131;-82
2022/03/30 16:02:14;;;;;;;7.32;4.60;;;11.20;99.90;;;;;;4940270;29;20106;-82
2022/03/30 16:04:42;;;;;;;7.03;4.55;;;11.10;99.90;;;;;;4933143;29;20118;-82
2022/03/30 16:07:10;;;;;;;7.65;4.85;;;11.00;99.90;;;;;;4933711;29;20058;-82
2022/03/30 16:09:37;;;;;;;7.75;5.20;;;11.10;99.90;;;;;;4943206;29;20138;-82
2022/03/30 16:12:12;;;;;;;7.35;5.30;;;11.00;99.90;;;;;;4942753;28;20081;-81
2022/03/30 16:14:40;;;;;;;;;;;10.90;99.90;;;;;;4939722;29;20051;-82
2022/03/30 16:17:08;;;;;;;7.85;5.00;;;11.00;99.90;;;;;;4939455;29;19929;-81
2022/03/30 16:19:37;;;;;;;9.93;5.90;;;11.20;99.90;;;;;;4939167;29;20449;-82
2022/03/30 16:22:06;;;;;;;10.13;6.28;;;11.10;99.90;;;;;;4938240;29;20048;-82
2022/03/30 16:24:33;;;;;;;9.02;5.75;;;11.00;99.90;;;;;;4938429;29;20075;-82
2022/03/30 16:27:02;;;;;;;10.07;7.15;;;11.10;99.90;;;;;;4938264;29;20055;-82
2022/03/30 16:29:31;;;;;;;11.50;7.40;;;11.00;99.90;;;;;;4932767;29;20056;-82
2022/03/30 16:31:59;;;;;;;10.75;7.38;;;10.70;99.90;;;;;;4934388;29;20055;-82
2022/03/30 16:34:27;;;;;;;10.60;7.63;;;10.90;99.90;;;;;;4943504;29;20067;-81
2022/03/30 16:36:55;;;;;;;9.38;7.10;;;10.90;99.90;;;;;;4937076;29;20183;-81
2022/03/30 16:39:26;;;;;;;10.32;6.90;;;11.00;99.90;;;;;;4933299;29;20141;-81
2022/03/30 16:41:53;;;;;;;10.02;6.68;;;11.00;99.90;;;;;;4939051;29;20052;-82
2022/03/30 16:44:21;;;;;;;10.25;6.88;;;11.00;99.90;;;;;;4945570;29;20150;-82
2022/03/30 16:46:49;;;;;;;10.70;7.03;;;11.10;99.90;;;;;;4943656;29;20400;-81
2022/03/30 16:49:17;;;;;;;11.98;7.47;;;11.10;99.90;;;;;;4939051;29;20155;-82
2022/03/30 16:51:46;;;;;;;14.25;9.50;;;10.90;99.90;;;;;;4949044;29;20051;-82
2022/03/30 16:54:15;;;;;;;14.27;9.90;;;11.00;99.90;;;;;;4946165;29;20058;-82
2022/03/30 16:56:43;;;;;;;12.65;8.77;;;10.80;99.90;;;;;;4939245;29;20509;-82
2022/03/30 16:59:11;;;;;;;12.07;8.32;;;10.90;99.90;;;;;;4935597;29;20134;-81
2022/03/30 17:01:39;;;;;;;12.65;8.38;;;10.70;99.90;;;;;;4933824;29;21072;-81
2022/03/30 17:04:06;;;;;;;12.85;8.48;;;10.70;99.90;;;;;;4939014;29;20058;-82
2022/03/30 17:06:33;;;;;;;11.38;7.93;;;10.70;99.90;;;;;;4943580;29;20138;-82
2022/03/30 17:11:46;;;;;;;15.10;9.90;;;10.70;99.90;;;;;;4944081;28;20423;-82
2022/03/30 17:14:13;;;;;;;17.05;11.43;;;10.50;99.90;;;;;;4941341;29;20131;-82
2022/03/30 17:16:41;;;;;;;15.30;10.02;;;10.40;99.90;;;;;;4933418;29;20452;-82
2022/03/30 17:19:08;;;;;;;15.68;10.60;;;10.50;99.90;;;;;;4947889;29;20062;-82
2022/03/30 17:21:38;;;;;;;14.05;9.82;;;10.40;99.90;;;;;;4947632;29;20059;-82
2022/03/30 17:24:06;;;;;;;15.05;10.00;;;10.50;99.90;;;;;;4935582;29;20573;-82
2022/03/30 17:26:33;;;;;;;15.35;10.35;;;10.50;99.90;;;;;;4942633;29;20047;-81
2022/03/30 17:29:02;;;;;;;16.63;11.00;;;10.30;99.90;;;;;;4944178;29;20457;-81
2022/03/30 17:31:30;;;;;;;16.10;10.73;;;10.30;99.90;;;;;;4934845;29;20532;-81
2022/03/30 17:33:57;;;;;;;16.67;10.38;;;10.30;99.90;;;;;;4934679;29;20134;-81
2022/03/30 17:36:24;;;;;;;16.98;11.20;;;10.30;99.90;;;;;;4937046;28;20043;-81
2022/03/30 17:38:51;;;;;;;16.92;10.90;;;10.10;99.90;;;;;;4941255;29;20051;-83
2022/03/30 17:41:20;;;;;;;17.27;11.32;;;10.10;99.90;;;;;;4939966;29;20073;-82
2022/03/30 17:43:48;;;;;;;16.00;11.23;;;10.00;99.90;;;;;;4942407;29;20049;-82
2022/03/30 17:46:16;;;;;;;19.10;12.15;;;10.00;99.90;;;;;;4947836;29;20047;-82
2022/03/30 17:54:13;;;;;;;18.42;11.80;;;10.10;99.90;;;;;;4936740;29;20118;-80
2022/03/30 17:56:40;;;;;;;17.48;11.50;;;10.00;99.90;;;;;;4946835;29;20067;-80
2022/03/30 17:59:07;;;;;;;18.10;12.52;;;10.00;99.90;;;;;;4935650;29;20055;-79
2022/03/30 18:01:36;;;;;;;19.60;13.73;;;10.00;99.90;;;;;;4941026;29;20051;-85
2022/03/30 18:04:03;;;;;;;19.05;12.70;;;9.80;99.90;;;;;;4942868;29;20827;-82